EPT557 SLUY-SLSU
Flight info
| Callsign | EPT557 |
|---|---|
| Flight time | 0h 25m |
| Altitude | 21000 |
| Route | ERIKI DCT SUR |
| Aircraft | RJ70/M-SDFGIRWY/LB1 |
Departure
| Time | 2026-05-04 00:54 |
|---|---|
| Airport | Joya Andina International Airport (SLUY) |
Arrival
| Time | 2026-05-04 01:20 |
|---|---|
| Airport | Juana Azurduy de Padilla Air Force Base (SLSU) |
| Time | Latitude | Longitude | Altitude | Speed | Heading |
|---|---|---|---|---|---|
| 2026-05-04 00:35 | -20.44547 | -66.84352 | 12018 ft | 0 kts | 225° |
| 2026-05-04 00:51 | -20.44558 | -66.84364 | 12018 ft | 0 kts | 225° |
| 2026-05-04 00:51 | -20.44563 | -66.84368 | 12018 ft | 2 kts | 213° |
| 2026-05-04 00:51 | -20.44602 | -66.84376 | 12017 ft | 10 kts | 189° |
| 2026-05-04 00:52 | -20.44649 | -66.84401 | 12019 ft | 13 kts | 215° |
| 2026-05-04 00:52 | -20.44705 | -66.84415 | 12018 ft | 8 kts | 180° |
| 2026-05-04 00:52 | -20.44757 | -66.84410 | 12014 ft | 6 kts | 157° |
| 2026-05-04 00:52 | -20.44801 | -66.84386 | 12019 ft | 9 kts | 154° |
| 2026-05-04 00:53 | -20.44892 | -66.84339 | 12015 ft | 13 kts | 152° |
| 2026-05-04 00:53 | -20.44938 | -66.84290 | 12016 ft | 15 kts | 126° |
| 2026-05-04 00:53 | -20.44993 | -66.84185 | 12019 ft | 16 kts | 100° |
| 2026-05-04 00:53 | -20.45003 | -66.84094 | 12016 ft | 12 kts | 169° |
| 2026-05-04 00:54 | -20.45022 | -66.84144 | 12017 ft | 6 kts | 303° |
| 2026-05-04 00:54 | -20.45017 | -66.84152 | 12017 ft | 0 kts | 302° |
| 2026-05-04 00:54 | -20.45010 | -66.84165 | 12010 ft | 13 kts | 300° |
| 2026-05-04 00:54 | -20.44870 | -66.84413 | 12019 ft | 65 kts | 302° |
| 2026-05-04 00:55 | -20.44558 | -66.84966 | 12010 ft | 108 kts | 301° |
| 2026-05-04 00:55 | -20.44103 | -66.85773 | 12017 ft | 145 kts | 301° |
| 2026-05-04 00:55 | -20.43541 | -66.86777 | 12114 ft | 166 kts | 302° |
| 2026-05-04 00:55 | -20.42921 | -66.87871 | 12339 ft | 174 kts | 302° |
| 2026-05-04 00:56 | -20.42290 | -66.89008 | 12490 ft | 188 kts | 300° |
| 2026-05-04 00:56 | -20.41569 | -66.90284 | 12348 ft | 212 kts | 300° |
| 2026-05-04 00:56 | -20.40555 | -66.91503 | 12379 ft | 229 kts | 329° |
| 2026-05-04 00:56 | -20.39004 | -66.91844 | 12550 ft | 235 kts | 6° |
| 2026-05-04 00:57 | -20.37557 | -66.91141 | 12855 ft | 239 kts | 42° |
| 2026-05-04 00:57 | -20.36552 | -66.89741 | 13178 ft | 240 kts | 53° |
| 2026-05-04 00:57 | -20.35468 | -66.88314 | 13326 ft | 258 kts | 49° |
| 2026-05-04 00:57 | -20.34247 | -66.86791 | 13566 ft | 281 kts | 49° |
| 2026-05-04 00:58 | -20.32942 | -66.85148 | 13890 ft | 301 kts | 49° |
| 2026-05-04 00:58 | -20.31575 | -66.83382 | 14235 ft | 317 kts | 50° |
| 2026-05-04 00:58 | -20.30166 | -66.81508 | 14586 ft | 330 kts | 51° |
| 2026-05-04 00:58 | -20.28739 | -66.79577 | 15107 ft | 334 kts | 52° |
| 2026-05-04 00:59 | -20.27306 | -66.77613 | 15653 ft | 337 kts | 52° |
| 2026-05-04 00:59 | -20.25866 | -66.75640 | 16207 ft | 339 kts | 52° |
| 2026-05-04 00:59 | -20.24412 | -66.73647 | 16735 ft | 341 kts | 53° |
| 2026-05-04 00:59 | -20.22975 | -66.71664 | 17238 ft | 344 kts | 53° |
| 2026-05-04 01:00 | -20.21544 | -66.69693 | 17712 ft | 346 kts | 53° |
| 2026-05-04 01:00 | -20.20067 | -66.67663 | 18195 ft | 349 kts | 53° |
| 2026-05-04 01:00 | -20.18566 | -66.65618 | 18610 ft | 351 kts | 53° |
| 2026-05-04 01:00 | -20.17052 | -66.63573 | 19001 ft | 352 kts | 53° |
| 2026-05-04 01:01 | -20.15540 | -66.61515 | 19369 ft | 353 kts | 53° |
| 2026-05-04 01:01 | -20.14028 | -66.59455 | 19741 ft | 354 kts | 53° |
| 2026-05-04 01:01 | -20.12512 | -66.57377 | 20097 ft | 356 kts | 53° |
| 2026-05-04 01:01 | -20.10993 | -66.55297 | 20416 ft | 358 kts | 53° |
| 2026-05-04 01:02 | -20.09461 | -66.53206 | 20762 ft | 359 kts | 53° |
| 2026-05-04 01:02 | -20.07924 | -66.51102 | 20982 ft | 363 kts | 53° |
| 2026-05-04 01:02 | -20.06374 | -66.48977 | 21079 ft | 359 kts | 53° |
| 2026-05-04 01:02 | -20.04823 | -66.46845 | 21105 ft | 370 kts | 53° |
| 2026-05-04 01:03 | -20.03247 | -66.44673 | 21121 ft | 382 kts | 53° |
| 2026-05-04 01:03 | -20.01601 | -66.42413 | 21127 ft | 393 kts | 52° |
| 2026-05-04 01:03 | -19.99880 | -66.40095 | 21151 ft | 404 kts | 52° |
| 2026-05-04 01:03 | -19.98128 | -66.37715 | 21145 ft | 414 kts | 53° |
| 2026-05-04 01:04 | -19.96348 | -66.35270 | 21146 ft | 423 kts | 53° |
| 2026-05-04 01:04 | -19.95010 | -66.33448 | 21145 ft | 430 kts | 52° |
| 2026-05-04 01:04 | -19.93130 | -66.30923 | 21129 ft | 431 kts | 52° |
| 2026-05-04 01:04 | -19.91284 | -66.28421 | 21125 ft | 429 kts | 52° |
| 2026-05-04 01:05 | -19.89453 | -66.25922 | 21118 ft | 428 kts | 53° |
| 2026-05-04 01:05 | -19.87624 | -66.23419 | 21111 ft | 431 kts | 53° |
| 2026-05-04 01:05 | -19.85778 | -66.20898 | 21115 ft | 433 kts | 52° |
| 2026-05-04 01:05 | -19.83906 | -66.18385 | 21142 ft | 433 kts | 52° |
| 2026-05-04 01:06 | -19.82078 | -66.15905 | 21142 ft | 433 kts | 52° |
| 2026-05-04 01:06 | -19.80223 | -66.13378 | 21145 ft | 434 kts | 52° |
| 2026-05-04 01:06 | -19.78369 | -66.10853 | 21137 ft | 434 kts | 52° |
| 2026-05-04 01:06 | -19.76507 | -66.08323 | 21131 ft | 435 kts | 52° |
| 2026-05-04 01:07 | -19.74625 | -66.05809 | 21136 ft | 436 kts | 52° |
| 2026-05-04 01:07 | -19.72751 | -66.03284 | 21139 ft | 435 kts | 52° |
| 2026-05-04 01:07 | -19.70849 | -66.00777 | 21136 ft | 436 kts | 50° |
| 2026-05-04 01:07 | -19.68816 | -65.98399 | 21153 ft | 436 kts | 46° |
| 2026-05-04 01:08 | -19.66677 | -65.96120 | 21143 ft | 436 kts | 44° |
| 2026-05-04 01:08 | -19.64495 | -65.93885 | 21086 ft | 436 kts | 44° |
| 2026-05-04 01:08 | -19.62374 | -65.91739 | 20685 ft | 391 kts | 44° |
| 2026-05-04 01:08 | -19.60493 | -65.89849 | 20423 ft | 366 kts | 43° |
| 2026-05-04 01:09 | -19.58664 | -65.88013 | 20166 ft | 358 kts | 44° |
| 2026-05-04 01:09 | -19.56878 | -65.86191 | 19932 ft | 357 kts | 44° |
| 2026-05-04 01:09 | -19.55111 | -65.84381 | 19733 ft | 357 kts | 44° |
| 2026-05-04 01:09 | -19.53328 | -65.82557 | 19512 ft | 356 kts | 44° |
| 2026-05-04 01:10 | -19.51547 | -65.80739 | 19298 ft | 354 kts | 44° |
| 2026-05-04 01:10 | -19.49773 | -65.78930 | 19091 ft | 355 kts | 45° |
| 2026-05-04 01:10 | -19.48008 | -65.77102 | 18888 ft | 354 kts | 45° |
| 2026-05-04 01:10 | -19.46245 | -65.75279 | 18662 ft | 354 kts | 45° |
| 2026-05-04 01:11 | -19.44479 | -65.73475 | 18430 ft | 352 kts | 44° |
| 2026-05-04 01:11 | -19.42718 | -65.71676 | 18177 ft | 351 kts | 45° |
| 2026-05-04 01:11 | -19.40975 | -65.69884 | 17938 ft | 348 kts | 44° |
| 2026-05-04 01:11 | -19.39248 | -65.68104 | 17710 ft | 345 kts | 44° |
| 2026-05-04 01:12 | -19.37527 | -65.66343 | 17481 ft | 343 kts | 44° |
| 2026-05-04 01:12 | -19.35833 | -65.64612 | 17265 ft | 342 kts | 44° |
| 2026-05-04 01:12 | -19.34126 | -65.62871 | 17034 ft | 340 kts | 44° |
| 2026-05-04 01:12 | -19.32428 | -65.61138 | 16811 ft | 339 kts | 45° |
| 2026-05-04 01:13 | -19.30733 | -65.59403 | 16578 ft | 339 kts | 45° |
| 2026-05-04 01:13 | -19.29055 | -65.57669 | 16332 ft | 336 kts | 45° |
| 2026-05-04 01:13 | -19.27383 | -65.55943 | 16101 ft | 336 kts | 45° |
| 2026-05-04 01:13 | -19.25705 | -65.54231 | 15890 ft | 334 kts | 44° |
| 2026-05-04 01:14 | -19.24037 | -65.52528 | 15652 ft | 332 kts | 45° |
| 2026-05-04 01:14 | -19.22382 | -65.50824 | 15450 ft | 332 kts | 45° |
| 2026-05-04 01:14 | -19.20734 | -65.49125 | 15222 ft | 330 kts | 45° |
| 2026-05-04 01:14 | -19.19111 | -65.47454 | 14971 ft | 329 kts | 45° |
| 2026-05-04 01:15 | -19.17465 | -65.45771 | 14761 ft | 328 kts | 44° |
| 2026-05-04 01:15 | -19.15818 | -65.44106 | 14566 ft | 327 kts | 45° |
| 2026-05-04 01:15 | -19.14184 | -65.42441 | 14333 ft | 326 kts | 45° |
| 2026-05-04 01:15 | -19.12561 | -65.40777 | 14123 ft | 324 kts | 45° |
| 2026-05-04 01:16 | -19.10948 | -65.39120 | 13866 ft | 323 kts | 45° |
| 2026-05-04 01:16 | -19.09336 | -65.37468 | 13551 ft | 321 kts | 45° |
| 2026-05-04 01:16 | -19.07731 | -65.35837 | 13181 ft | 320 kts | 44° |
| 2026-05-04 01:16 | -19.06219 | -65.34282 | 12765 ft | 283 kts | 48° |
| 2026-05-04 01:17 | -19.05062 | -65.32727 | 12268 ft | 255 kts | 55° |
| 2026-05-04 01:17 | -19.04100 | -65.31285 | 11840 ft | 224 kts | 58° |
| 2026-05-04 01:17 | -19.03382 | -65.29965 | 11531 ft | 189 kts | 62° |
| 2026-05-04 01:17 | -19.02782 | -65.28852 | 11229 ft | 167 kts | 59° |
| 2026-05-04 01:18 | -19.02168 | -65.27768 | 10992 ft | 179 kts | 62° |
| 2026-05-04 01:18 | -19.01552 | -65.26620 | 10996 ft | 180 kts | 58° |
| 2026-05-04 01:18 | -19.00831 | -65.25603 | 11063 ft | 166 kts | 39° |
| 2026-05-04 01:18 | -18.99780 | -65.25216 | 11111 ft | 156 kts | 352° |
| 2026-05-04 01:19 | -18.98938 | -65.25840 | 10915 ft | 153 kts | 298° |
| 2026-05-04 01:19 | -18.98926 | -65.26901 | 10302 ft | 158 kts | 231° |
| 2026-05-04 01:19 | -18.99700 | -65.27792 | 9516 ft | 166 kts | 224° |
| 2026-05-04 01:19 | -19.00423 | -65.28582 | 9369 ft | 133 kts | 226° |
| 2026-05-04 01:20 | -19.00906 | -65.29102 | 9406 ft | 62 kts | 226° |
| 2026-05-04 01:20 | -19.01093 | -65.29288 | 9410 ft | 21 kts | 185° |
| 2026-05-04 01:20 | -19.01163 | -65.29305 | 9413 ft | 8 kts | 210° |
| 2026-05-04 01:20 | -19.01214 | -65.29326 | 9410 ft | 8 kts | 192° |
| 2026-05-04 01:21 | -19.01261 | -65.29319 | 9408 ft | 7 kts | 141° |
| 2026-05-04 01:21 | -19.01295 | -65.29311 | 9407 ft | 6 kts | 223° |
| 2026-05-04 01:21 | -19.01315 | -65.29341 | 9409 ft | 5 kts | 230° |
| 2026-05-04 01:21 | -19.01337 | -65.29362 | 9407 ft | 4 kts | 205° |
| 2026-05-04 01:22 | -19.01356 | -65.29354 | 9408 ft | 3 kts | 124° |
| 2026-05-04 01:22 | -19.01366 | -65.29339 | 9412 ft | 1 kts | 111° |
| 2026-05-04 01:22 | -19.01362 | -65.29335 | 9412 ft | 1 kts | 13° |
| 2026-05-04 01:22 | -19.01359 | -65.29340 | 9412 ft | 0 kts | 275° |